Řízení letového provozu České republiky  
Aktualizace dat:  27.11.2021 22:52:28 UTC English version
   METEO Zobrazení stránky:  27.11.2021 22:53:59 UTC  
vysvětlivky
METAR EDDB 272220Z 22006KT 9000 BKN046 03/02 Q0995 NOSIG=
METAR EDDC 272220Z 17007KT 9999 -SNRA BKN032 03/00 Q0995=
METAR EDDE 272220Z 21005KT CAVOK M01/M03 Q0995=
METAR EDDF 272220Z 18003KT 140V210 9999 -SNRA FEW009 BKN025 02/01 Q0995 NOSIG=
METAR EDDM 272220Z VRB02KT CAVOK 00/M01 Q0996 NOSIG=
METAR EDDN 272220Z 06003KT 020V110 9999 FEW040 M02/M02 Q0996=
METAR EDDP 272220Z 23008KT 9999 SCT045 02/01 Q0995 NOSIG=
METAR EDQM 272220Z AUTO 25005KT 9999 // FEW007/// SCT012/// OVC042/// M01/M02 Q0994=
METAR EPBY 272230Z 18004KT 150V220 3900 BR SCT004 BKN006 01/M00 Q0997=
METAR COR EPGD 272230Z 21003KT 9999 FEW035 01/M00 Q0996=
METAR EPKK 272230Z VRB01KT 5000 BR OVC023 03/02 Q0998=
METAR EPKT 272230Z 15007KT 4000 BR FEW008 OVC011 01/01 Q0997=
METAR EPLL 272230Z 13004KT 090V170 3900 BR OVC002 00/M00 Q0997=
METAR EPPO 272230Z 17006KT 3800 BR BKN036 01/00 Q0996=
METAR EPRZ 272230Z 11004KT CAVOK 01/M00 Q0999=
METAR EPWA 272230Z 14004KT 7000 FEW043 00/M00 Q0998 TEMPO 4000 BR BKN010=
METAR EPWR 272230Z 15003KT 110V170 CAVOK M02/M03 Q0997=
METAR LHBP 272230Z 35003KT 310V020 4500 -DZ BR OVC005 04/04 Q0998 NOSIG=
METAR LHSM 272215Z AUTO 06004KT 5000 BR OVC007 05/05 Q0998=
METAR LKBC NIL
METAR LKCV 272230Z 14004KT CAVOK 01/M01 Q0997 NOSIG RMK BLU BLU=
METAR LKKB 272230Z VRB02KT CAVOK 01/M01 Q0996 RMK BLU=
METAR LKKU NIL
METAR LKKV 272200Z 26006KT 230V300 9999 SCT007 BKN021 00/M01 Q0994 RMK REG QNH 0992=
METAR LKLN 272300Z AUTO 20004KT 9999 FEW020 OVC029 03/00 Q0996=
METAR LKMT 272230Z 22003KT 7000 SCT011 BKN014 01/01 Q0997 NOSIG RMK REG QNH 0992=
METAR LKNA 272230Z VRB02KT 3000 BR OVC002 M01/M01 Q0997 RMK AMB=
METAR LKPD 272230Z 08005KT 9999 SCT045 BKN120 01/M01 Q0997 RMK BLACK=
METAR LKPJ 272230Z AUTO VRB01KT 3500 BR FEW005/// OVC017/// 00/M00 Q0998=
METAR LKPR 272230Z 15005KT 9999 BKN024 01/M00 Q0996 NOSIG RMK REG QNH 0992=
METAR LKTB 272230Z VRB01KT 7000 OVC013 01/M01 Q0998 NOSIG RMK REG QNH 0992=
METAR LKVO NIL
METAR LOWI 272220Z AUTO VRB02KT 3200 -SN FEW006 SCT009 BKN013 00/M00 Q0996 RESN=
METAR LOWL 272220Z AUTO 27002KT 4500 BR FEW015 BKN070 M00/M00 Q0997 NOSIG=
METAR LOWS 272220Z AUTO 14008KT 9999 OVC070 01/00 Q0996=
METAR LOWW 272220Z 14003KT 7000 FEW005 OVC009 01/M00 Q0998 NOSIG=
METAR LZIB 272230Z 04003KT 2800 BR BKN002 BKN009 03/03 Q0998=
METAR LZKZ 272230Z 01004KT 8000 -RA BKN010 OVC020 03/02 Q0999=
METAR LZMC NIL
METAR LZPP 272230Z AUTO 32003KT 2100 BR SCT009/// OVC017/// 03/03 Q0998=
METAR LZSL NIL
METAR LZTT 272230Z 14003KT 120V190 9999 FEW007 SCT026 M00/M01 Q0997=
METAR LZZI 272230Z 12002KT 4500 BR SCT004 OVC011 02/01 Q0998=